Overview Statistics Trail Chart Weather Telemetry Raw packets
 

This is the latest recevied weather packets stored in our database for station/object K5FEP. If no packets are shown the sender has not sent any weather packets the latest 10 day(s).

<< 21 22 23 24 25 26 27 >>
Time Temp. Humidity Pressure Rain* Wind** Luminosity Snow
1788493010 27.22° C 72% 1015.6 hPa 0 mm - 0 W/m² -
1788492708 27.22° C 72% 1015.6 hPa 0 mm - 0 W/m² -
1788492403 27.22° C 71% 1015.5 hPa 0 mm - 0 W/m² -
1788492102 27.22° C 72% 1015.4 hPa 0 mm - 0 W/m² -
1788491801 27.22° C 72% 1015.3 hPa 0 mm - 0 W/m² -
1788491497 27.78° C 71% 1015.4 hPa 0 mm - 0 W/m² -
1788491193 27.78° C 70% 1015.4 hPa 0 mm - 0 W/m² -
1788490889 27.78° C 69% 1015.4 hPa 0 mm - 0 W/m² -
1788490585 28.89° C 67% 1015.4 hPa 0 mm - 0 W/m² -
1788490285 28.89° C 64% 1015.2 hPa 0 mm - 0 W/m² -
1788489980 28.89° C 65% 1015.2 hPa 0 mm - 0 W/m² -
1788489676 28.33° C 67% 1015.1 hPa 0 mm - 0 W/m² -
1788489372 27.78° C 69% 1015.1 hPa 0 mm - 0 W/m² -
1788489068 27.78° C 70% 1015.2 hPa 0 mm - 0 W/m² -
1788488767 27.22° C 71% 1015.2 hPa 0 mm - 0 W/m² -
1788488464 27.22° C 72% 1015.5 hPa 0 mm - 0 W/m² -
1788488160 27.22° C 71% 1015.5 hPa 0 mm - 0 W/m² -
1788487854 27.78° C 71% 1015.5 hPa 0 mm - 0 W/m² -
1788487550 27.78° C 70% 1015.6 hPa 0 mm - 0 W/m² -
1788487244 27.78° C 69% 1015.4 hPa 0 mm - 0 W/m² -
1788486939 27.78° C 69% 1015.6 hPa 0 mm - 0 W/m² -
1788486638 28.33° C 68% 1015.4 hPa 0 mm - 0 W/m² -
1788486332 28.33° C 67% 1015.5 hPa 0 mm - 0 W/m² -
1788486028 28.33° C 67% 1015.5 hPa 0 mm - 0 W/m² -
1788485724 28.33° C 66% 1015.7 hPa 0 mm - 0 W/m² -

* Rain latest hour (hover to see other rain measurements)
** Current wind speed in m/s (hover to see current wind gust speed)